Cave City, Kentucky
Current Conditions -  °F | °C
As of 9:55 AM on Thursday 30 Oct 2014 (Local Time) from KGLW Reporting Station
Clear Clear  
Wind Chill: 10°   Ceiling: Unl
Heat Index: 10°   Visibility: 10mi
Dew Point:   Wind: 3mph
Humidity: 63%   Direction: 80°E
Pressure: 30.16"   Gusts: NA
Location:  37.14°N, 85.96°W
Report Text: KGLW 301455Z AUTO 08003KT 10SM CLR 10/03 A3016 RMK AO2 T01020034
Loading
Personal Weather Stations






























Interactive Weather Map
Tropical Storm Tracking
New forecast layout! Learn more

10-Day Weather Forecast

Advertisements
Track Severe Weather on mobile